»·PEaware :: N26292 KLAL-KEYW

N26292 :: KLAL-KEYW

FLIGHT INFORMATION

Flight Status: Arrived
Operator: Privately registered:
United States
More flights under this callsign
Pilot: Friedhelm S. (2894)
Aircraft: CESSNA 172 SKYHAWK
(C172)
More flights by this aircraft type
Origin: KLAL Lakeland Linder Regl
United States
Destination: KEYW Key West Intl
United States
More flights between these airports :: More routes between these airports
Route:
File this flight plan on PilotEdge
Remarks:
Altitude:
(Current/Filed)
4,500ft
Speed:
(Current/Filed)
100kts
Departed: 15-Apr-20 02:11 PM
Arrived: 15-Apr-20 04:08 PM
Distance/Time
Traveled:
207nm/1:56
Distance/Time
To Go:
Arrived

Flight Plot

Page will automatically refresh every two minutes.

Flight plan parsing failed; only flown route is shown


Map Options




Map Legend


Flown Route
Filed Route
Departure Airport
Arrival Airport
Navaid (VOR, NDB)
Fix

Horizontal Profiles

Position Reports

Time Latitude Longitude Heading Altitude Ground
Speed
15-Apr-20 14:08 27.989252 -82.033675 89 134ft 0kts
15-Apr-20 14:08 27.989252 -82.033675 89 134ft 0kts
15-Apr-20 14:09 27.989254 -82.033569 88 134ft 14kts
15-Apr-20 14:11 27.988720 -82.004424 122 949ft 96kts
15-Apr-20 14:11 27.967667 -82.002924 188 1786ft 93kts
15-Apr-20 14:12 27.941733 -82.008563 193 2689ft 96kts
15-Apr-20 14:14 27.909772 -82.011712 181 3449ft 110kts
15-Apr-20 14:15 27.879710 -82.011136 171 3498ft 108kts
15-Apr-20 14:15 27.854792 -82.009062 179 3550ft 108kts
15-Apr-20 14:16 27.824350 -82.007236 177 3550ft 110kts
15-Apr-20 14:17 27.794095 -82.000752 167 3543ft 110kts
15-Apr-20 14:18 27.763876 -81.993575 166 3520ft 111kts
15-Apr-20 14:19 27.733245 -81.987630 171 3495ft 111kts
15-Apr-20 14:20 27.702627 -81.982362 174 3486ft 111kts
15-Apr-20 14:21 27.672109 -81.977369 167 3490ft 110kts
15-Apr-20 14:22 27.642074 -81.969718 168 3492ft 110kts
15-Apr-20 14:23 27.611949 -81.962691 168 3495ft 110kts
15-Apr-20 14:24 27.581771 -81.956111 165 3497ft 110kts
15-Apr-20 14:25 27.552182 -81.946822 170 3497ft 111kts
15-Apr-20 14:26 27.521783 -81.941730 171 3503ft 110kts
15-Apr-20 14:27 27.491560 -81.935022 169 3509ft 110kts
15-Apr-20 14:28 27.461404 -81.928091 168 3512ft 110kts
15-Apr-20 14:29 27.431199 -81.921874 170 3516ft 110kts
15-Apr-20 14:30 27.400804 -81.916760 173 3519ft 110kts
15-Apr-20 14:31 27.370132 -81.913024 175 3523ft 110kts
15-Apr-20 14:32 27.339496 -81.911213 173 3525ft 110kts
15-Apr-20 14:33 27.309014 -81.906297 168 3529ft 110kts
15-Apr-20 14:34 27.278962 -81.898597 168 3534ft 110kts
15-Apr-20 14:35 27.248553 -81.893556 173 3531ft 111kts
15-Apr-20 14:36 27.223404 -81.891035 178 3537ft 110kts
15-Apr-20 14:37 27.192762 -81.888090 176 3538ft 111kts
15-Apr-20 14:38 27.162579 -81.881236 169 3548ft 110kts
15-Apr-20 14:39 27.132475 -81.874689 170 3554ft 110kts
15-Apr-20 14:40 27.102049 -81.869679 172 3563ft 110kts
15-Apr-20 14:41 27.071451 -81.864694 172 3535ft 112kts
15-Apr-20 14:42 27.040610 -81.860260 173 3524ft 111kts
15-Apr-20 14:43 27.009863 -81.855712 172 3506ft 111kts
15-Apr-20 14:44 26.978977 -81.852941 179 3494ft 111kts
15-Apr-20 14:45 26.948219 -81.850863 172 3495ft 111kts
15-Apr-20 14:46 26.918028 -81.846194 172 3536ft 109kts
15-Apr-20 14:47 26.887625 -81.841216 171 3523ft 111kts
15-Apr-20 14:48 26.856850 -81.835327 166 3491ft 112kts
15-Apr-20 14:49 26.826402 -81.828175 170 3459ft 112kts
15-Apr-20 14:50 26.795943 -81.822387 170 3474ft 110kts
15-Apr-20 14:51 26.765882 -81.816536 172 3511ft 109kts
15-Apr-20 14:52 26.735724 -81.811473 172 3534ft 109kts
15-Apr-20 14:53 26.705295 -81.807901 176 3538ft 111kts
15-Apr-20 14:54 26.674722 -81.805728 168 3555ft 110kts
15-Apr-20 14:55 26.644979 -81.797207 163 3565ft 110kts
15-Apr-20 14:56 26.614983 -81.789007 170 3554ft 111kts
15-Apr-20 14:57 26.584496 -81.783069 172 3534ft 111kts
15-Apr-20 14:58 26.553753 -81.778851 172 3522ft 111kts
15-Apr-20 14:59 26.522939 -81.775715 184 3516ft 110kts
15-Apr-20 15:00 26.492136 -81.776685 178 3503ft 111kts
15-Apr-20 15:01 26.461292 -81.777050 184 3500ft 111kts
15-Apr-20 15:02 26.430389 -81.779285 179 3499ft 111kts
15-Apr-20 15:03 26.399497 -81.778918 175 3500ft 111kts
15-Apr-20 15:04 26.368645 -81.777038 175 3498ft 111kts
15-Apr-20 15:05 26.337739 -81.775991 176 3496ft 110kts
15-Apr-20 15:06 26.306960 -81.773837 170 3495ft 111kts
15-Apr-20 15:07 26.276151 -81.771527 178 3497ft 110kts
15-Apr-20 15:08 26.245312 -81.769917 176 3498ft 110kts
15-Apr-20 15:09 26.214475 -81.767437 176 3495ft 111kts
15-Apr-20 15:10 26.183624 -81.764848 176 3496ft 111kts
15-Apr-20 15:11 26.152934 -81.762217 176 3499ft 111kts
15-Apr-20 15:12 26.122042 -81.763054 181 3506ft 110kts
15-Apr-20 15:13 26.091245 -81.763183 181 3511ft 110kts
15-Apr-20 15:14 26.060451 -81.762846 173 3511ft 111kts
15-Apr-20 15:15 26.029765 -81.763728 187 3503ft 112kts
15-Apr-20 15:16 25.999147 -81.767964 183 3511ft 111kts
15-Apr-20 15:17 25.968302 -81.768462 185 3507ft 112kts
15-Apr-20 15:18 25.937509 -81.770936 183 3515ft 111kts
15-Apr-20 15:19 25.906680 -81.773726 184 3519ft 111kts
15-Apr-20 15:20 25.875815 -81.776197 183 3522ft 111kts
15-Apr-20 15:21 25.845026 -81.778862 185 3524ft 111kts
15-Apr-20 15:22 25.814412 -81.783008 188 3522ft 111kts
15-Apr-20 15:23 25.783776 -81.787621 181 3522ft 111kts
15-Apr-20 15:24 25.752947 -81.789296 185 3523ft 111kts
15-Apr-20 15:25 25.722180 -81.791114 178 3523ft 111kts
15-Apr-20 15:26 25.691321 -81.789636 177 3530ft 110kts
15-Apr-20 15:27 25.660434 -81.788052 178 3528ft 111kts
15-Apr-20 15:28 25.637781 -81.787690 181 3530ft 111kts
15-Apr-20 15:29 25.607023 -81.790117 183 3535ft 111kts
15-Apr-20 15:30 25.576168 -81.791778 181 3532ft 111kts
15-Apr-20 15:31 25.545302 -81.792779 182 3537ft 111kts
15-Apr-20 15:32 25.514512 -81.795258 182 3540ft 111kts
15-Apr-20 15:33 25.483632 -81.794200 177 3542ft 111kts
15-Apr-20 15:34 25.452780 -81.792767 179 3546ft 111kts
15-Apr-20 15:35 25.422027 -81.790107 175 3554ft 111kts
15-Apr-20 15:36 25.391042 -81.789256 179 3534ft 112kts
15-Apr-20 15:37 25.359929 -81.791154 184 3518ft 112kts
15-Apr-20 15:38 25.328835 -81.791926 179 3504ft 111kts
15-Apr-20 15:39 25.297779 -81.790897 178 3489ft 111kts
15-Apr-20 15:40 25.266722 -81.789966 177 3478ft 111kts
15-Apr-20 15:41 25.235696 -81.787630 175 3482ft 110kts
15-Apr-20 15:42 25.205078 -81.785833 177 3509ft 109kts
15-Apr-20 15:43 25.174418 -81.785372 178 3529ft 110kts
15-Apr-20 15:44 25.143728 -81.785433 181 3547ft 110kts
15-Apr-20 15:45 25.113013 -81.786443 182 3563ft 110kts
15-Apr-20 15:46 25.082375 -81.787520 180 3579ft 110kts
15-Apr-20 15:47 25.051533 -81.787775 180 3586ft 111kts
15-Apr-20 15:48 25.020561 -81.788880 180 3585ft 111kts
15-Apr-20 15:49 24.989628 -81.789352 181 3586ft 111kts
15-Apr-20 15:50 24.958738 -81.789732 181 3589ft 111kts
15-Apr-20 15:51 24.927902 -81.791215 182 3573ft 112kts
15-Apr-20 15:52 24.896770 -81.793224 183 3559ft 112kts
15-Apr-20 15:53 24.865702 -81.795410 185 3544ft 112kts
15-Apr-20 15:54 24.834588 -81.797311 180 3527ft 112kts
15-Apr-20 15:55 24.803411 -81.797949 181 3506ft 112kts
15-Apr-20 15:56 24.772226 -81.798748 181 3492ft 111kts
15-Apr-20 15:57 24.741125 -81.799153 181 3485ft 111kts
15-Apr-20 15:58 24.710736 -81.800858 180 3250ft 106kts
15-Apr-20 15:59 24.681807 -81.803142 188 2722ft 104kts
15-Apr-20 16:01 24.653301 -81.804923 177 2243ft 103kts
15-Apr-20 16:02 24.624746 -81.802729 174 1803ft 102kts
15-Apr-20 16:03 24.598493 -81.798794 170 1528ft 80kts
15-Apr-20 16:04 24.576854 -81.795943 205 1223ft 82kts
15-Apr-20 16:05 24.563065 -81.809558 138 1155ft 80kts
15-Apr-20 16:06 24.556383 -81.789142 93 543ft 68kts
15-Apr-20 16:07 24.556055 -81.768146 89 50ft 67kts
15-Apr-20 16:08 24.556120 -81.755857 90 4ft 25kts
15-Apr-20 16:09 24.555310 -81.752996 274 4ft 12kts
15-Apr-20 16:10 24.554734 -81.756901 221 4ft 8kts
15-Apr-20 16:11 24.554626 -81.757231 269 4ft 0kts
15-Apr-20 16:12 24.554626 -81.757231 269 4ft 0kts
15-Apr-20 16:13 24.554626 -81.757231 269 4ft 0kts
15-Apr-20 16:14 24.554626 -81.757231 269 4ft 0kts
15-Apr-20 16:15 24.554626 -81.757231 269 4ft 0kts
15-Apr-20 16:16 24.554626 -81.757231 269 4ft 0kts
15-Apr-20 16:16 24.554626 -81.757231 269 4ft 0kts
15-Apr-20 16:18 24.554626 -81.757231 269 4ft 0kts
15-Apr-20 16:19 24.554626 -81.757231 269 4ft 0kts
15-Apr-20 16:19 24.554626 -81.757231 269 4ft 0kts
15-Apr-20 16:20 24.554626 -81.757231 269 4ft 0kts
15-Apr-20 16:22 24.554626 -81.757231 269 4ft 0kts

Navigation Log

Ident Type
Flight plan parsing failed, navigation log unavailable